sensor_id;sensor_type;location;lat;lon;timestamp;pressure;altitude;pressure_sealevel;temperature;humidity
9672;BME280;4874;43.568;27.824;2023-09-18T00:00:30;99580.38;;;17.34;100.00
9672;BME280;4874;43.568;27.824;2023-09-18T00:02:57;99574.72;;;17.05;100.00
9672;BME280;4874;43.568;27.824;2023-09-18T00:05:24;99584.09;;;17.17;100.00
9672;BME280;4874;43.568;27.824;2023-09-18T00:07:50;99578.72;;;17.25;100.00
9672;BME280;4874;43.568;27.824;2023-09-18T00:10:17;99574.69;;;17.21;100.00
9672;BME280;4874;43.568;27.824;2023-09-18T00:12:44;99572.84;;;17.21;100.00
9672;BME280;4874;43.568;27.824;2023-09-18T00:15:11;99568.28;;;17.30;100.00
9672;BME280;4874;43.568;27.824;2023-09-18T00:17:38;99568.44;;;17.44;100.00
9672;BME280;4874;43.568;27.824;2023-09-18T00:20:05;99566.50;;;17.06;100.00
9672;BME280;4874;43.568;27.824;2023-09-18T00:22:33;99570.81;;;17.31;100.00
9672;BME280;4874;43.568;27.824;2023-09-18T00:25:00;99543.09;;;17.47;100.00
9672;BME280;4874;43.568;27.824;2023-09-18T00:27:30;99569.63;;;17.50;100.00
9672;BME280;4874;43.568;27.824;2023-09-18T00:29:59;99563.47;;;17.17;100.00
9672;BME280;4874;43.568;27.824;2023-09-18T00:32:27;99568.72;;;16.95;100.00
9672;BME280;4874;43.568;27.824;2023-09-18T00:34:54;99546.78;;;16.75;100.00
9672;BME280;4874;43.568;27.824;2023-09-18T00:37:21;99570.06;;;16.75;100.00
9672;BME280;4874;43.568;27.824;2023-09-18T00:39:49;99565.06;;;16.80;100.00
9672;BME280;4874;43.568;27.824;2023-09-18T00:42:16;99564.03;;;16.65;100.00
9672;BME280;4874;43.568;27.824;2023-09-18T00:44:45;99558.03;;;16.71;100.00
9672;BME280;4874;43.568;27.824;2023-09-18T00:47:12;99565.53;;;16.83;100.00
9672;BME280;4874;43.568;27.824;2023-09-18T00:49:43;99555.84;;;16.74;100.00
9672;BME280;4874;43.568;27.824;2023-09-18T00:52:11;99550.13;;;16.93;100.00
9672;BME280;4874;43.568;27.824;2023-09-18T00:54:39;99566.34;;;16.92;100.00
9672;BME280;4874;43.568;27.824;2023-09-18T00:57:09;99555.19;;;16.64;100.00
9672;BME280;4874;43.568;27.824;2023-09-18T00:59:37;99554.81;;;16.51;100.00
9672;BME280;4874;43.568;27.824;2023-09-18T01:02:04;99563.53;;;16.77;100.00
9672;BME280;4874;43.568;27.824;2023-09-18T01:04:33;99562.78;;;17.23;100.00
9672;BME280;4874;43.568;27.824;2023-09-18T01:07:00;99542.72;;;16.39;100.00
9672;BME280;4874;43.568;27.824;2023-09-18T01:09:34;99554.00;;;16.51;100.00
9672;BME280;4874;43.568;27.824;2023-09-18T01:12:08;99542.59;;;16.65;100.00
9672;BME280;4874;43.568;27.824;2023-09-18T01:14:45;99552.13;;;16.43;100.00
9672;BME280;4874;43.568;27.824;2023-09-18T01:17:16;99536.53;;;16.22;100.00
9672;BME280;4874;43.568;27.824;2023-09-18T01:19:44;99544.28;;;16.58;100.00
9672;BME280;4874;43.568;27.824;2023-09-18T01:22:15;99541.06;;;16.94;100.00
9672;BME280;4874;43.568;27.824;2023-09-18T01:24:44;99543.75;;;16.70;100.00
9672;BME280;4874;43.568;27.824;2023-09-18T01:27:17;99544.75;;;16.85;100.00
9672;BME280;4874;43.568;27.824;2023-09-18T01:29:46;99543.25;;;16.67;100.00
9672;BME280;4874;43.568;27.824;2023-09-18T01:32:13;99546.72;;;17.07;100.00
9672;BME280;4874;43.568;27.824;2023-09-18T01:34:49;99556.28;;;16.45;100.00
9672;BME280;4874;43.568;27.824;2023-09-18T01:37:19;99546.28;;;16.88;100.00
9672;BME280;4874;43.568;27.824;2023-09-18T01:39:49;99561.22;;;16.50;100.00
9672;BME280;4874;43.568;27.824;2023-09-18T01:42:16;99532.19;;;16.37;100.00
9672;BME280;4874;43.568;27.824;2023-09-18T01:44:44;99519.97;;;16.43;100.00
9672;BME280;4874;43.568;27.824;2023-09-18T01:47:14;99521.63;;;16.36;100.00
9672;BME280;4874;43.568;27.824;2023-09-18T01:49:42;99557.16;;;16.38;100.00
9672;BME280;4874;43.568;27.824;2023-09-18T01:52:09;99565.66;;;16.33;100.00
9672;BME280;4874;43.568;27.824;2023-09-18T01:54:36;99560.44;;;16.08;100.00
9672;BME280;4874;43.568;27.824;2023-09-18T01:57:04;99559.69;;;16.80;100.00
9672;BME280;4874;43.568;27.824;2023-09-18T01:59:31;99553.63;;;16.37;100.00
9672;BME280;4874;43.568;27.824;2023-09-18T02:01:58;99556.97;;;16.96;100.00
9672;BME280;4874;43.568;27.824;2023-09-18T02:04:24;99490.94;;;15.82;100.00
9672;BME280;4874;43.568;27.824;2023-09-18T02:07:12;99561.63;;;16.05;100.00
9672;BME280;4874;43.568;27.824;2023-09-18T02:09:40;99557.75;;;16.00;100.00
9672;BME280;4874;43.568;27.824;2023-09-18T02:12:07;99556.06;;;15.91;100.00
9672;BME280;4874;43.568;27.824;2023-09-18T02:14:34;99527.66;;;16.22;100.00
9672;BME280;4874;43.568;27.824;2023-09-18T02:17:00;99557.59;;;16.01;100.00
9672;BME280;4874;43.568;27.824;2023-09-18T02:19:27;99554.03;;;15.85;100.00
9672;BME280;4874;43.568;27.824;2023-09-18T02:21:56;99558.22;;;15.79;100.00
9672;BME280;4874;43.568;27.824;2023-09-18T02:24:24;99558.44;;;16.02;100.00
9672;BME280;4874;43.568;27.824;2023-09-18T02:26:51;99559.00;;;16.21;100.00
9672;BME280;4874;43.568;27.824;2023-09-18T02:29:18;99562.78;;;16.03;100.00
9672;BME280;4874;43.568;27.824;2023-09-18T02:31:44;99557.72;;;15.84;100.00
9672;BME280;4874;43.568;27.824;2023-09-18T02:34:11;99565.91;;;15.82;100.00
9672;BME280;4874;43.568;27.824;2023-09-18T02:36:38;99565.28;;;15.96;100.00
9672;BME280;4874;43.568;27.824;2023-09-18T02:39:05;99567.94;;;15.80;100.00
9672;BME280;4874;43.568;27.824;2023-09-18T02:41:31;99568.59;;;15.82;100.00
9672;BME280;4874;43.568;27.824;2023-09-18T02:43:58;99561.72;;;15.80;100.00
9672;BME280;4874;43.568;27.824;2023-09-18T02:46:25;99554.38;;;15.40;100.00
9672;BME280;4874;43.568;27.824;2023-09-18T02:48:52;99546.13;;;15.67;100.00
9672;BME280;4874;43.568;27.824;2023-09-18T02:51:19;99564.41;;;15.80;100.00
9672;BME280;4874;43.568;27.824;2023-09-18T02:53:46;99551.72;;;15.40;100.00
9672;BME280;4874;43.568;27.824;2023-09-18T02:56:13;99564.56;;;15.78;100.00
9672;BME280;4874;43.568;27.824;2023-09-18T02:58:40;99564.19;;;15.65;100.00
9672;BME280;4874;43.568;27.824;2023-09-18T03:01:07;99570.88;;;16.43;100.00
9672;BME280;4874;43.568;27.824;2023-09-18T03:03:34;99559.97;;;16.12;100.00
9672;BME280;4874;43.568;27.824;2023-09-18T03:06:03;99560.94;;;16.03;100.00
9672;BME280;4874;43.568;27.824;2023-09-18T03:08:30;99530.97;;;15.92;100.00
9672;BME280;4874;43.568;27.824;2023-09-18T03:10:57;99547.91;;;16.08;100.00
9672;BME280;4874;43.568;27.824;2023-09-18T03:13:30;99574.97;;;15.89;100.00
9672;BME280;4874;43.568;27.824;2023-09-18T03:15:57;99571.81;;;15.94;100.00
9672;BME280;4874;43.568;27.824;2023-09-18T03:18:24;99572.50;;;16.04;100.00
9672;BME280;4874;43.568;27.824;2023-09-18T03:20:51;99556.91;;;15.99;100.00
9672;BME280;4874;43.568;27.824;2023-09-18T03:23:18;99564.31;;;16.05;100.00
9672;BME280;4874;43.568;27.824;2023-09-18T03:25:44;99577.56;;;15.65;100.00
9672;BME280;4874;43.568;27.824;2023-09-18T03:28:14;99570.09;;;15.77;100.00
9672;BME280;4874;43.568;27.824;2023-09-18T03:30:41;99569.56;;;15.73;100.00
9672;BME280;4874;43.568;27.824;2023-09-18T03:33:07;99574.28;;;15.87;100.00
9672;BME280;4874;43.568;27.824;2023-09-18T03:35:48;99567.53;;;15.67;100.00
9672;BME280;4874;43.568;27.824;2023-09-18T03:38:16;99556.09;;;16.07;100.00
9672;BME280;4874;43.568;27.824;2023-09-18T03:40:43;99558.88;;;15.73;100.00
9672;BME280;4874;43.568;27.824;2023-09-18T03:43:11;99558.09;;;15.89;100.00
9672;BME280;4874;43.568;27.824;2023-09-18T03:45:39;99507.44;;;15.62;100.00
9672;BME280;4874;43.568;27.824;2023-09-18T03:48:09;99558.31;;;16.27;100.00
9672;BME280;4874;43.568;27.824;2023-09-18T03:50:37;99560.31;;;16.25;100.00
9672;BME280;4874;43.568;27.824;2023-09-18T03:53:03;99561.66;;;16.45;100.00
9672;BME280;4874;43.568;27.824;2023-09-18T03:55:30;99567.53;;;16.33;100.00
9672;BME280;4874;43.568;27.824;2023-09-18T03:57:57;99569.91;;;16.60;100.00
9672;BME280;4874;43.568;27.824;2023-09-18T04:00:24;99567.22;;;16.68;100.00
9672;BME280;4874;43.568;27.824;2023-09-18T04:02:51;99586.31;;;17.05;100.00
9672;BME280;4874;43.568;27.824;2023-09-18T04:05:18;99587.47;;;17.03;100.00
9672;BME280;4874;43.568;27.824;2023-09-18T04:07:45;99579.56;;;17.09;100.00
9672;BME280;4874;43.568;27.824;2023-09-18T04:10:14;99593.00;;;17.09;100.00
9672;BME280;4874;43.568;27.824;2023-09-18T04:12:51;99576.03;;;17.25;100.00
9672;BME280;4874;43.568;27.824;2023-09-18T04:15:18;99582.16;;;17.41;100.00
9672;BME280;4874;43.568;27.824;2023-09-18T04:17:46;99590.56;;;17.38;100.00
9672;BME280;4874;43.568;27.824;2023-09-18T04:20:13;99589.13;;;17.20;100.00
9672;BME280;4874;43.568;27.824;2023-09-18T04:22:47;99596.03;;;17.06;100.00
9672;BME280;4874;43.568;27.824;2023-09-18T04:25:17;99587.97;;;17.69;100.00
9672;BME280;4874;43.568;27.824;2023-09-18T04:27:46;99588.88;;;17.45;100.00
9672;BME280;4874;43.568;27.824;2023-09-18T04:30:16;99587.31;;;16.80;100.00
9672;BME280;4874;43.568;27.824;2023-09-18T04:32:44;99597.72;;;16.99;100.00
9672;BME280;4874;43.568;27.824;2023-09-18T04:35:11;99595.84;;;17.24;100.00
9672;BME280;4874;43.568;27.824;2023-09-18T04:37:39;99572.09;;;17.59;100.00
9672;BME280;4874;43.568;27.824;2023-09-18T04:40:07;99600.63;;;17.44;100.00
9672;BME280;4874;43.568;27.824;2023-09-18T04:42:38;99581.84;;;17.36;100.00
9672;BME280;4874;43.568;27.824;2023-09-18T04:45:06;99597.88;;;17.77;100.00
9672;BME280;4874;43.568;27.824;2023-09-18T04:47:33;99590.16;;;17.19;100.00
9672;BME280;4874;43.568;27.824;2023-09-18T04:50:00;99600.00;;;17.26;100.00
9672;BME280;4874;43.568;27.824;2023-09-18T04:52:27;99600.78;;;17.59;100.00
9672;BME280;4874;43.568;27.824;2023-09-18T04:54:54;99598.84;;;17.29;100.00
9672;BME280;4874;43.568;27.824;2023-09-18T04:57:21;99603.69;;;17.88;100.00
9672;BME280;4874;43.568;27.824;2023-09-18T04:59:49;99561.44;;;17.74;100.00
9672;BME280;4874;43.568;27.824;2023-09-18T05:02:27;99602.06;;;17.71;100.00
9672;BME280;4874;43.568;27.824;2023-09-18T05:04:55;99608.69;;;17.99;100.00
9672;BME280;4874;43.568;27.824;2023-09-18T05:07:22;99602.28;;;17.62;100.00
9672;BME280;4874;43.568;27.824;2023-09-18T05:09:49;99601.81;;;17.58;100.00
9672;BME280;4874;43.568;27.824;2023-09-18T05:12:16;99603.81;;;17.40;100.00
9672;BME280;4874;43.568;27.824;2023-09-18T05:14:43;99600.97;;;17.57;100.00
9672;BME280;4874;43.568;27.824;2023-09-18T05:17:13;99603.16;;;17.93;100.00
9672;BME280;4874;43.568;27.824;2023-09-18T05:19:43;99592.44;;;17.93;100.00
9672;BME280;4874;43.568;27.824;2023-09-18T05:22:10;99597.16;;;17.83;100.00
9672;BME280;4874;43.568;27.824;2023-09-18T05:24:40;99591.06;;;17.58;100.00
9672;BME280;4874;43.568;27.824;2023-09-18T05:27:07;99593.34;;;17.77;100.00
9672;BME280;4874;43.568;27.824;2023-09-18T05:29:34;99597.56;;;17.72;100.00
9672;BME280;4874;43.568;27.824;2023-09-18T05:32:04;99583.09;;;17.81;100.00
9672;BME280;4874;43.568;27.824;2023-09-18T05:34:31;99583.88;;;18.20;100.00
9672;BME280;4874;43.568;27.824;2023-09-18T05:36:58;99592.06;;;18.26;100.00
9672;BME280;4874;43.568;27.824;2023-09-18T05:39:25;99594.44;;;18.21;100.00
9672;BME280;4874;43.568;27.824;2023-09-18T05:41:52;99591.38;;;18.24;100.00
9672;BME280;4874;43.568;27.824;2023-09-18T05:44:19;99600.13;;;17.96;100.00
9672;BME280;4874;43.568;27.824;2023-09-18T05:46:46;99602.91;;;17.72;100.00
9672;BME280;4874;43.568;27.824;2023-09-18T05:49:12;99590.69;;;18.30;100.00
9672;BME280;4874;43.568;27.824;2023-09-18T05:51:39;99589.75;;;18.15;100.00
9672;BME280;4874;43.568;27.824;2023-09-18T05:54:06;99591.25;;;18.18;100.00
9672;BME280;4874;43.568;27.824;2023-09-18T05:56:33;99557.19;;;18.10;100.00
9672;BME280;4874;43.568;27.824;2023-09-18T05:59:00;99588.38;;;18.50;100.00
9672;BME280;4874;43.568;27.824;2023-09-18T06:01:27;99589.44;;;19.38;100.00
9672;BME280;4874;43.568;27.824;2023-09-18T06:03:54;99584.78;;;19.61;100.00
9672;BME280;4874;43.568;27.824;2023-09-18T06:06:21;99593.44;;;19.56;100.00
9672;BME280;4874;43.568;27.824;2023-09-18T06:08:48;99589.88;;;19.85;100.00
9672;BME280;4874;43.568;27.824;2023-09-18T06:11:14;99592.59;;;20.35;100.00
9672;BME280;4874;43.568;27.824;2023-09-18T06:13:41;99563.56;;;20.02;100.00
9672;BME280;4874;43.568;27.824;2023-09-18T06:16:08;99560.19;;;20.50;100.00
9672;BME280;4874;43.568;27.824;2023-09-18T06:18:35;99597.78;;;21.00;100.00
9672;BME280;4874;43.568;27.824;2023-09-18T06:21:04;99540.75;;;20.40;100.00
9672;BME280;4874;43.568;27.824;2023-09-18T06:23:32;99593.91;;;20.88;100.00
9672;BME280;4874;43.568;27.824;2023-09-18T06:25:59;99602.44;;;21.06;100.00
9672;BME280;4874;43.568;27.824;2023-09-18T06:28:26;99579.81;;;21.41;100.00
9672;BME280;4874;43.568;27.824;2023-09-18T06:30:53;99573.97;;;21.38;100.00
9672;BME280;4874;43.568;27.824;2023-09-18T06:33:23;99603.84;;;21.64;100.00
9672;BME280;4874;43.568;27.824;2023-09-18T06:35:49;99602.63;;;21.66;100.00
9672;BME280;4874;43.568;27.824;2023-09-18T06:38:18;99606.88;;;21.48;100.00
9672;BME280;4874;43.568;27.824;2023-09-18T06:40:45;99586.63;;;21.65;100.00
9672;BME280;4874;43.568;27.824;2023-09-18T06:43:12;99596.50;;;21.51;100.00
9672;BME280;4874;43.568;27.824;2023-09-18T06:45:38;99611.56;;;21.67;100.00
9672;BME280;4874;43.568;27.824;2023-09-18T06:48:06;99617.25;;;22.19;100.00
9672;BME280;4874;43.568;27.824;2023-09-18T06:50:34;99612.41;;;22.08;100.00
9672;BME280;4874;43.568;27.824;2023-09-18T06:53:00;99606.56;;;22.04;100.00
9672;BME280;4874;43.568;27.824;2023-09-18T06:55:27;99616.19;;;22.13;100.00
9672;BME280;4874;43.568;27.824;2023-09-18T06:57:54;99594.84;;;22.45;100.00
9672;BME280;4874;43.568;27.824;2023-09-18T07:00:21;99605.97;;;22.89;100.00
9672;BME280;4874;43.568;27.824;2023-09-18T07:02:48;99592.34;;;22.50;100.00
9672;BME280;4874;43.568;27.824;2023-09-18T07:05:16;99530.91;;;22.11;100.00
9672;BME280;4874;43.568;27.824;2023-09-18T07:07:43;99606.59;;;22.78;100.00
9672;BME280;4874;43.568;27.824;2023-09-18T07:10:10;99604.41;;;22.41;100.00
9672;BME280;4874;43.568;27.824;2023-09-18T07:12:37;99599.06;;;22.60;100.00
9672;BME280;4874;43.568;27.824;2023-09-18T07:15:04;99604.72;;;22.72;100.00
9672;BME280;4874;43.568;27.824;2023-09-18T07:17:32;99597.00;;;22.82;100.00
9672;BME280;4874;43.568;27.824;2023-09-18T07:20:00;99601.59;;;22.94;100.00
9672;BME280;4874;43.568;27.824;2023-09-18T07:22:27;99578.91;;;23.08;100.00
9672;BME280;4874;43.568;27.824;2023-09-18T07:24:56;99591.16;;;22.85;100.00
9672;BME280;4874;43.568;27.824;2023-09-18T07:27:23;99604.50;;;23.12;100.00
9672;BME280;4874;43.568;27.824;2023-09-18T07:29:49;99470.13;;;21.94;100.00
9672;BME280;4874;43.568;27.824;2023-09-18T07:32:17;99603.69;;;22.92;100.00
9672;BME280;4874;43.568;27.824;2023-09-18T07:34:55;99571.41;;;22.78;100.00
9672;BME280;4874;43.568;27.824;2023-09-18T07:37:22;99595.34;;;22.87;100.00
9672;BME280;4874;43.568;27.824;2023-09-18T07:39:49;99596.59;;;23.04;100.00
9672;BME280;4874;43.568;27.824;2023-09-18T07:42:16;99601.59;;;23.40;100.00
9672;BME280;4874;43.568;27.824;2023-09-18T07:44:42;99593.59;;;23.78;100.00
9672;BME280;4874;43.568;27.824;2023-09-18T07:47:09;99598.59;;;23.81;100.00
9672;BME280;4874;43.568;27.824;2023-09-18T07:49:36;99597.81;;;23.61;100.00
9672;BME280;4874;43.568;27.824;2023-09-18T07:52:03;99598.88;;;23.47;100.00
9672;BME280;4874;43.568;27.824;2023-09-18T07:54:31;99592.38;;;23.74;100.00
9672;BME280;4874;43.568;27.824;2023-09-18T07:56:58;99595.56;;;23.45;100.00
9672;BME280;4874;43.568;27.824;2023-09-18T07:59:27;99598.69;;;23.22;100.00
9672;BME280;4874;43.568;27.824;2023-09-18T08:01:54;99586.00;;;22.96;100.00
9672;BME280;4874;43.568;27.824;2023-09-18T08:04:21;99589.50;;;22.97;100.00
9672;BME280;4874;43.568;27.824;2023-09-18T08:06:48;99592.44;;;22.95;100.00
9672;BME280;4874;43.568;27.824;2023-09-18T08:09:15;99597.22;;;23.46;100.00
9672;BME280;4874;43.568;27.824;2023-09-18T08:11:42;99581.97;;;23.58;96.17
9672;BME280;4874;43.568;27.824;2023-09-18T08:14:13;99590.94;;;23.65;91.61
9672;BME280;4874;43.568;27.824;2023-09-18T08:16:39;99590.97;;;23.25;91.55
9672;BME280;4874;43.568;27.824;2023-09-18T08:19:06;99592.19;;;23.69;90.65
9672;BME280;4874;43.568;27.824;2023-09-18T08:21:33;99591.41;;;23.36;85.38
9672;BME280;4874;43.568;27.824;2023-09-18T08:24:00;99566.56;;;23.58;86.84
9672;BME280;4874;43.568;27.824;2023-09-18T08:26:27;99588.66;;;23.62;87.53
9672;BME280;4874;43.568;27.824;2023-09-18T08:28:54;99589.09;;;23.39;88.14
9672;BME280;4874;43.568;27.824;2023-09-18T08:31:21;99575.78;;;23.38;88.06
9672;BME280;4874;43.568;27.824;2023-09-18T08:33:48;99576.81;;;23.30;85.83
9672;BME280;4874;43.568;27.824;2023-09-18T08:36:15;99527.00;;;23.18;87.08
9672;BME280;4874;43.568;27.824;2023-09-18T08:38:42;99551.34;;;23.51;86.90
9672;BME280;4874;43.568;27.824;2023-09-18T08:41:11;99566.94;;;23.55;87.27
9672;BME280;4874;43.568;27.824;2023-09-18T08:43:42;99562.56;;;24.18;85.40
9672;BME280;4874;43.568;27.824;2023-09-18T08:46:09;99545.91;;;24.14;80.79
9672;BME280;4874;43.568;27.824;2023-09-18T08:48:37;99560.88;;;23.66;85.99
9672;BME280;4874;43.568;27.824;2023-09-18T08:51:06;99563.41;;;24.18;83.71
9672;BME280;4874;43.568;27.824;2023-09-18T08:53:34;99552.84;;;23.97;83.61
9672;BME280;4874;43.568;27.824;2023-09-18T08:56:02;99551.97;;;24.48;81.47
9672;BME280;4874;43.568;27.824;2023-09-18T08:58:35;99548.97;;;24.56;78.78
9672;BME280;4874;43.568;27.824;2023-09-18T09:01:04;99554.84;;;24.53;72.86
9672;BME280;4874;43.568;27.824;2023-09-18T09:03:32;99558.00;;;24.81;71.94
9672;BME280;4874;43.568;27.824;2023-09-18T09:06:02;99554.69;;;24.48;69.05
9672;BME280;4874;43.568;27.824;2023-09-18T09:08:29;99546.19;;;24.93;69.52
9672;BME280;4874;43.568;27.824;2023-09-18T09:10:56;99553.34;;;25.30;70.05
9672;BME280;4874;43.568;27.824;2023-09-18T09:13:24;99561.38;;;24.76;71.00
9672;BME280;4874;43.568;27.824;2023-09-18T09:16:10;99559.94;;;24.42;70.84
9672;BME280;4874;43.568;27.824;2023-09-18T09:18:47;99549.66;;;24.51;69.83
9672;BME280;4874;43.568;27.824;2023-09-18T09:21:14;99545.13;;;24.63;68.23
9672;BME280;4874;43.568;27.824;2023-09-18T09:23:50;99559.16;;;24.91;69.02
9672;BME280;4874;43.568;27.824;2023-09-18T09:26:21;99524.06;;;25.14;68.44
9672;BME280;4874;43.568;27.824;2023-09-18T09:28:49;99567.63;;;25.50;73.42
9672;BME280;4874;43.568;27.824;2023-09-18T09:31:27;99551.97;;;25.03;75.66
9672;BME280;4874;43.568;27.824;2023-09-18T09:33:54;99553.66;;;25.22;73.76
9672;BME280;4874;43.568;27.824;2023-09-18T09:36:23;99543.16;;;24.83;69.95
9672;BME280;4874;43.568;27.824;2023-09-18T09:38:57;99556.22;;;24.93;69.31
9672;BME280;4874;43.568;27.824;2023-09-18T09:41:25;99564.00;;;25.57;70.25
9672;BME280;4874;43.568;27.824;2023-09-18T09:43:54;99559.09;;;25.65;69.29
9672;BME280;4874;43.568;27.824;2023-09-18T09:46:23;99569.06;;;25.71;72.77
9672;BME280;4874;43.568;27.824;2023-09-18T09:49:03;99542.69;;;25.11;74.43
9672;BME280;4874;43.568;27.824;2023-09-18T09:51:32;99552.09;;;24.90;75.77
9672;BME280;4874;43.568;27.824;2023-09-18T09:53:59;99558.47;;;25.20;74.58
9672;BME280;4874;43.568;27.824;2023-09-18T09:56:48;99562.03;;;24.96;73.45
9672;BME280;4874;43.568;27.824;2023-09-18T09:59:18;99548.00;;;25.48;75.14
9672;BME280;4874;43.568;27.824;2023-09-18T10:01:47;99556.16;;;25.48;75.17
9672;BME280;4874;43.568;27.824;2023-09-18T10:04:17;99542.97;;;25.82;73.15
9672;BME280;4874;43.568;27.824;2023-09-18T10:06:50;99545.41;;;26.08;71.34
9672;BME280;4874;43.568;27.824;2023-09-18T10:09:21;99538.75;;;25.49;73.46
9672;BME280;4874;43.568;27.824;2023-09-18T10:11:51;99539.91;;;25.17;74.72
9672;BME280;4874;43.568;27.824;2023-09-18T10:14:20;99537.31;;;25.04;75.73
9672;BME280;4874;43.568;27.824;2023-09-18T10:16:54;99521.78;;;24.62;77.25
9672;BME280;4874;43.568;27.824;2023-09-18T10:20:02;99535.09;;;24.39;80.49
9672;BME280;4874;43.568;27.824;2023-09-18T10:22:39;99538.78;;;24.51;81.70
9672;BME280;4874;43.568;27.824;2023-09-18T10:25:21;99507.38;;;23.93;81.49
9672;BME280;4874;43.568;27.824;2023-09-18T10:27:51;99536.00;;;24.26;81.21
9672;BME280;4874;43.568;27.824;2023-09-18T10:30:24;99531.44;;;24.27;81.07
9672;BME280;4874;43.568;27.824;2023-09-18T10:32:53;99513.00;;;24.29;78.88
9672;BME280;4874;43.568;27.824;2023-09-18T10:35:22;99525.06;;;24.39;78.45
9672;BME280;4874;43.568;27.824;2023-09-18T10:37:49;99532.06;;;24.54;76.80
9672;BME280;4874;43.568;27.824;2023-09-18T10:40:20;99524.63;;;24.74;75.85
9672;BME280;4874;43.568;27.824;2023-09-18T10:42:50;99500.44;;;24.66;75.54
9672;BME280;4874;43.568;27.824;2023-09-18T10:45:17;99520.81;;;24.81;76.90
9672;BME280;4874;43.568;27.824;2023-09-18T10:47:46;99529.34;;;24.54;77.18
9672;BME280;4874;43.568;27.824;2023-09-18T10:50:25;99523.28;;;24.27;76.93
9672;BME280;4874;43.568;27.824;2023-09-18T10:52:52;99519.66;;;24.64;76.58
9672;BME280;4874;43.568;27.824;2023-09-18T10:55:21;99517.34;;;24.68;78.41
9672;BME280;4874;43.568;27.824;2023-09-18T11:00:18;99480.59;;;24.65;72.35
9672;BME280;4874;43.568;27.824;2023-09-18T11:02:51;99486.28;;;24.32;71.77
9672;BME280;4874;43.568;27.824;2023-09-18T11:05:32;99513.66;;;24.87;69.57
9672;BME280;4874;43.568;27.824;2023-09-18T11:11:03;99507.22;;;25.06;72.98
9672;BME280;4874;43.568;27.824;2023-09-18T11:13:44;99519.59;;;25.02;73.31
9672;BME280;4874;43.568;27.824;2023-09-18T11:16:33;99511.66;;;25.43;71.20
9672;BME280;4874;43.568;27.824;2023-09-18T11:21:28;99513.88;;;24.85;71.43
9672;BME280;4874;43.568;27.824;2023-09-18T11:24:07;99513.06;;;24.54;71.48
9672;BME280;4874;43.568;27.824;2023-09-18T11:26:40;99506.63;;;24.48;73.53
9672;BME280;4874;43.568;27.824;2023-09-18T11:29:12;99515.59;;;24.80;69.14
9672;BME280;4874;43.568;27.824;2023-09-18T11:31:52;99513.97;;;24.72;69.18
9672;BME280;4874;43.568;27.824;2023-09-18T11:34:28;99514.63;;;24.92;68.16
9672;BME280;4874;43.568;27.824;2023-09-18T11:36:58;99477.25;;;25.12;66.69
9672;BME280;4874;43.568;27.824;2023-09-18T11:39:36;99510.91;;;24.62;66.58
9672;BME280;4874;43.568;27.824;2023-09-18T11:42:21;99502.72;;;24.93;65.88
9672;BME280;4874;43.568;27.824;2023-09-18T11:44:56;99478.81;;;25.02;66.66
9672;BME280;4874;43.568;27.824;2023-09-18T11:47:25;99505.72;;;25.28;62.69
9672;BME280;4874;43.568;27.824;2023-09-18T11:49:58;99504.97;;;24.78;64.12
9672;BME280;4874;43.568;27.824;2023-09-18T11:52:30;99498.88;;;24.52;64.99
9672;BME280;4874;43.568;27.824;2023-09-18T11:54:59;99442.78;;;24.64;66.76
9672;BME280;4874;43.568;27.824;2023-09-18T11:57:26;99485.63;;;25.29;69.56
9672;BME280;4874;43.568;27.824;2023-09-18T11:59:55;99485.50;;;25.60;70.80
9672;BME280;4874;43.568;27.824;2023-09-18T12:02:28;99470.47;;;25.21;75.83
9672;BME280;4874;43.568;27.824;2023-09-18T12:04:55;99457.03;;;24.84;78.15
9672;BME280;4874;43.568;27.824;2023-09-18T12:07:23;99469.78;;;24.34;75.42
9672;BME280;4874;43.568;27.824;2023-09-18T12:09:51;99498.59;;;24.35;77.36
9672;BME280;4874;43.568;27.824;2023-09-18T12:12:20;99491.34;;;24.54;82.41
9672;BME280;4874;43.568;27.824;2023-09-18T12:14:47;99491.13;;;24.30;84.63
9672;BME280;4874;43.568;27.824;2023-09-18T12:17:15;99494.13;;;24.16;82.35
9672;BME280;4874;43.568;27.824;2023-09-18T12:19:55;99480.53;;;24.47;85.66
9672;BME280;4874;43.568;27.824;2023-09-18T12:22:29;99475.09;;;24.78;84.66
9672;BME280;4874;43.568;27.824;2023-09-18T12:25:15;99476.69;;;24.55;83.91
9672;BME280;4874;43.568;27.824;2023-09-18T12:27:45;99484.06;;;24.23;86.47
9672;BME280;4874;43.568;27.824;2023-09-18T12:30:13;99476.47;;;24.31;87.75
9672;BME280;4874;43.568;27.824;2023-09-18T12:32:47;99470.84;;;24.33;89.16
9672;BME280;4874;43.568;27.824;2023-09-18T12:35:15;99484.09;;;24.48;85.46
9672;BME280;4874;43.568;27.824;2023-09-18T12:37:42;99465.91;;;24.23;82.92
9672;BME280;4874;43.568;27.824;2023-09-18T12:40:28;99463.53;;;24.33;83.61
9672;BME280;4874;43.568;27.824;2023-09-18T12:42:57;99481.09;;;24.56;84.38
9672;BME280;4874;43.568;27.824;2023-09-18T12:45:28;99467.44;;;24.13;84.91
9672;BME280;4874;43.568;27.824;2023-09-18T12:47:57;99483.78;;;24.00;84.06
9672;BME280;4874;43.568;27.824;2023-09-18T12:50:26;99491.41;;;24.16;82.28
9672;BME280;4874;43.568;27.824;2023-09-18T12:52:53;99467.91;;;24.59;78.38
9672;BME280;4874;43.568;27.824;2023-09-18T12:55:24;99469.34;;;24.37;80.00
9672;BME280;4874;43.568;27.824;2023-09-18T12:57:54;99408.13;;;23.85;82.83
9672;BME280;4874;43.568;27.824;2023-09-18T13:00:22;99470.38;;;24.36;84.98
9672;BME280;4874;43.568;27.824;2023-09-18T13:02:50;99472.91;;;24.06;82.35
9672;BME280;4874;43.568;27.824;2023-09-18T13:05:23;99468.28;;;24.07;82.84
9672;BME280;4874;43.568;27.824;2023-09-18T13:07:54;99465.91;;;24.48;84.18
9672;BME280;4874;43.568;27.824;2023-09-18T13:10:21;99427.13;;;24.16;78.96
9672;BME280;4874;43.568;27.824;2023-09-18T13:12:52;99468.28;;;24.87;77.96
9672;BME280;4874;43.568;27.824;2023-09-18T13:15:31;99458.50;;;24.86;79.73
9672;BME280;4874;43.568;27.824;2023-09-18T13:18:00;99448.84;;;24.41;83.50
9672;BME280;4874;43.568;27.824;2023-09-18T13:20:30;99447.25;;;24.33;84.86
9672;BME280;4874;43.568;27.824;2023-09-18T13:22:59;99443.00;;;24.37;84.52